createdAt,value
2022-07-29T00:00:48.938Z,118.07
2022-07-29T00:03:36.099Z,119.20
2022-07-29T00:06:27.317Z,122.57
2022-07-29T00:09:14.254Z,120.40
2022-07-29T00:12:02.184Z,122.55
2022-07-29T00:14:49.116Z,122.72
2022-07-29T00:17:36.160Z,121.60
2022-07-29T00:20:23.456Z,121.68
2022-07-29T00:23:13.524Z,117.78
2022-07-29T00:26:00.864Z,118.90
2022-07-29T00:28:47.786Z,117.35
2022-07-29T00:31:34.808Z,117.97
2022-07-29T00:34:48.345Z,117.60
2022-07-29T00:37:35.309Z,117.28
2022-07-29T00:40:23.537Z,116.20
2022-07-29T00:43:11.951Z,118.05
2022-07-29T00:45:58.924Z,115.03
2022-07-29T00:48:46.136Z,114.40
2022-07-29T00:51:33.362Z,116.55
2022-07-29T00:54:21.396Z,113.75
2022-07-29T00:57:09.345Z,115.13
2022-07-29T00:59:56.869Z,115.45
2022-07-29T01:02:44.847Z,115.28
2022-07-29T01:05:50.428Z,111.97
2022-07-29T01:08:38.946Z,114.30
2022-07-29T01:11:26.478Z,113.88
2022-07-29T01:14:14.200Z,112.20
2022-07-29T01:17:11.737Z,109.25
2022-07-29T01:20:31.555Z,110.22
2022-07-29T01:23:37.761Z,112.25
2022-07-29T01:26:46.483Z,111.93
2022-07-29T01:29:42.491Z,112.55
2022-07-29T01:32:36.566Z,112.90
2022-07-29T01:35:32.980Z,113.95
2022-07-29T01:38:24.266Z,111.78
2022-07-29T01:41:15.645Z,113.15
2022-07-29T01:44:28.472Z,114.90
2022-07-29T01:47:21.481Z,112.65
2022-07-29T01:50:13.719Z,112.97
2022-07-29T01:53:05.228Z,115.63
2022-07-29T01:55:53.912Z,114.28
2022-07-29T01:58:44.362Z,110.60
2022-07-29T02:01:33.738Z,111.90
2022-07-29T02:04:29.227Z,113.03
2022-07-29T02:07:22.885Z,112.22
2022-07-29T02:10:12.362Z,109.22
2022-07-29T02:13:01.137Z,110.72
2022-07-29T02:15:50.722Z,108.80
2022-07-29T02:18:39.895Z,105.47
2022-07-29T02:21:29.182Z,105.45
2022-07-29T02:24:19.419Z,113.05
2022-07-29T02:27:08.437Z,107.32
2022-07-29T02:29:57.625Z,109.32
2022-07-29T02:32:47.708Z,112.18
2022-07-29T02:35:35.734Z,111.22
2022-07-29T02:38:43.253Z,107.68
2022-07-29T02:41:34.466Z,107.57
2022-07-29T02:44:25.017Z,108.22
2022-07-29T02:47:16.734Z,110.43
2022-07-29T02:50:11.023Z,106.93
2022-07-29T02:53:04.393Z,111.97
2022-07-29T02:56:00.824Z,112.78
2022-07-29T02:58:57.138Z,112.82
2022-07-29T03:01:46.055Z,115.63
2022-07-29T03:04:35.400Z,116.70
2022-07-29T03:07:23.118Z,113.45
2022-07-29T03:10:10.989Z,113.43
2022-07-29T03:13:01.717Z,111.43
2022-07-29T03:15:49.388Z,114.18
2022-07-29T03:18:37.570Z,113.25
2022-07-29T03:21:25.724Z,114.22
2022-07-29T03:24:26.002Z,112.18
2022-07-29T03:27:13.212Z,109.82
2022-07-29T03:30:00.171Z,112.05
2022-07-29T03:32:47.113Z,111.95
2022-07-29T03:35:34.114Z,110.93
2022-07-29T03:38:25.134Z,113.50
2022-07-29T03:41:15.574Z,111.15
2022-07-29T03:44:03.335Z,112.65
2022-07-29T03:46:53.085Z,110.10
2022-07-29T03:49:41.913Z,112.35
2022-07-29T03:52:29.291Z,111.28
2022-07-29T03:55:17.094Z,113.03
2022-07-29T03:58:04.667Z,110.70
2022-07-29T04:00:51.967Z,116.00
2022-07-29T04:03:40.123Z,110.22
2022-07-29T04:06:27.154Z,108.80
2022-07-29T04:09:14.173Z,112.15
2022-07-29T04:12:04.079Z,112.95
2022-07-29T04:14:51.545Z,108.25
2022-07-29T04:17:38.888Z,109.72
2022-07-29T04:20:25.863Z,109.78
2022-07-29T04:23:13.055Z,109.57
2022-07-29T04:26:02.334Z,111.30
2022-07-29T04:28:50.124Z,112.07
2022-07-29T04:31:37.205Z,109.53
2022-07-29T04:34:28.207Z,109.78
2022-07-29T04:37:15.336Z,111.78
2022-07-29T04:40:02.261Z,112.00
2022-07-29T04:42:49.625Z,112.43
2022-07-29T04:45:36.636Z,110.93
2022-07-29T04:48:28.475Z,108.70
2022-07-29T04:51:16.752Z,107.47
2022-07-29T04:54:03.898Z,108.95
2022-07-29T04:56:50.963Z,108.65
2022-07-29T04:59:37.947Z,109.00
2022-07-29T05:02:25.073Z,111.18
2022-07-29T05:05:12.100Z,112.03
2022-07-29T05:08:02.120Z,110.45
2022-07-29T05:10:49.266Z,114.93
2022-07-29T05:13:45.153Z,110.60
2022-07-29T05:16:33.380Z,114.43
2022-07-29T05:19:20.417Z,118.18
2022-07-29T05:22:07.548Z,118.75
2022-07-29T05:24:54.666Z,123.38
2022-07-29T05:27:41.638Z,128.50
2022-07-29T05:30:28.901Z,137.10
2022-07-29T05:33:34.230Z,147.75
2022-07-29T05:36:23.003Z,146.90
2022-07-29T05:39:10.032Z,147.48
2022-07-29T05:41:57.328Z,143.10
2022-07-29T05:44:44.535Z,139.50
2022-07-29T05:47:31.678Z,140.63
2022-07-29T05:50:18.789Z,144.35
2022-07-29T05:53:19.364Z,146.38
2022-07-29T05:56:08.426Z,154.65
2022-07-29T05:58:55.507Z,153.80
2022-07-29T06:01:42.855Z,148.13
2022-07-29T06:04:30.072Z,152.50
2022-07-29T06:07:17.334Z,159.45
2022-07-29T06:10:04.807Z,165.02
2022-07-29T06:12:51.971Z,165.35
2022-07-29T06:15:39.536Z,164.23
2022-07-29T06:18:27.025Z,165.13
2022-07-29T06:21:14.291Z,175.75
2022-07-29T06:24:01.424Z,170.55
2022-07-29T06:26:48.650Z,177.70
2022-07-29T06:29:35.757Z,194.40
2022-07-29T06:32:23.000Z,202.52
2022-07-29T06:38:30.653Z,176.38
2022-07-29T06:41:20.875Z,177.32
2022-07-29T06:44:08.086Z,172.73
2022-07-29T06:46:55.840Z,186.10
2022-07-29T06:49:43.235Z,190.27
2022-07-29T06:52:30.499Z,188.95
2022-07-29T06:55:25.229Z,189.43
2022-07-29T06:58:12.958Z,184.57
2022-07-29T07:01:03.813Z,176.40
2022-07-29T07:03:50.907Z,177.35
2022-07-29T07:06:39.034Z,180.68
2022-07-29T07:09:26.633Z,176.73
2022-07-29T07:12:27.336Z,165.52
2022-07-29T07:15:14.285Z,168.07
2022-07-29T07:18:01.457Z,171.25
2022-07-29T07:20:49.022Z,161.93
2022-07-29T07:23:36.181Z,159.52
2022-07-29T07:26:23.320Z,154.23
2022-07-29T07:29:10.314Z,146.75
2022-07-29T07:32:00.865Z,146.23
2022-07-29T07:34:48.326Z,144.45
2022-07-29T07:37:35.821Z,141.73
2022-07-29T07:40:22.821Z,137.85
2022-07-29T07:43:09.957Z,136.57
2022-07-29T07:45:57.083Z,138.43
2022-07-29T07:48:44.131Z,138.98
2022-07-29T07:51:31.142Z,136.48
2022-07-29T07:54:20.842Z,140.50
2022-07-29T07:57:08.066Z,135.23
2022-07-29T07:59:55.216Z,138.07
2022-07-29T08:02:43.972Z,137.25
2022-07-29T08:05:31.129Z,136.38
2022-07-29T08:08:18.588Z,142.70
2022-07-29T08:11:09.772Z,143.13
2022-07-29T08:13:57.215Z,142.38
2022-07-29T08:16:44.363Z,143.38
2022-07-29T08:19:31.346Z,145.90
2022-07-29T08:22:18.381Z,143.40
2022-07-29T08:25:05.958Z,142.48
2022-07-29T08:27:52.912Z,146.77
2022-07-29T08:30:39.850Z,148.40
2022-07-29T08:33:26.885Z,151.85
2022-07-29T08:36:14.243Z,171.85
2022-07-29T08:39:02.221Z,179.15
2022-07-29T08:41:56.596Z,168.82
2022-07-29T08:44:45.603Z,171.07
2022-07-29T08:47:32.910Z,182.18
2022-07-29T08:50:20.088Z,192.57
2022-07-29T08:53:11.516Z,201.50
2022-07-29T08:55:59.424Z,211.65
2022-07-29T08:58:52.331Z,210.73
2022-07-29T09:01:42.918Z,209.40
2022-07-29T09:04:35.584Z,209.90
2022-07-29T09:07:22.572Z,221.88
2022-07-29T09:10:10.233Z,219.82
2022-07-29T09:12:57.418Z,223.65
2022-07-29T09:15:45.822Z,231.85
2022-07-29T09:18:44.610Z,227.48
2022-07-29T09:22:00.222Z,224.73
2022-07-29T09:24:48.694Z,228.27
2022-07-29T09:27:36.691Z,226.63
2022-07-29T09:30:25.615Z,227.15
2022-07-29T09:33:18.656Z,229.80
2022-07-29T09:36:08.411Z,231.85
2022-07-29T09:39:02.068Z,240.80
2022-07-29T09:41:54.647Z,228.98
2022-07-29T09:44:49.584Z,229.35
2022-07-29T09:47:49.920Z,228.57
2022-07-29T09:50:41.533Z,226.60
2022-07-29T09:53:38.394Z,235.38
2022-07-29T09:56:42.720Z,232.00
2022-07-29T09:59:29.742Z,224.48
2022-07-29T10:02:21.948Z,224.48
2022-07-29T10:05:24.951Z,220.52
2022-07-29T10:08:15.811Z,210.52
2022-07-29T10:11:13.618Z,213.27
2022-07-29T10:14:03.724Z,209.32
2022-07-29T10:16:50.913Z,211.05
2022-07-29T10:19:39.373Z,207.75
2022-07-29T10:22:50.819Z,222.90
2022-07-29T10:25:33.857Z,235.25
2022-07-29T10:28:21.134Z,247.68
2022-07-29T10:31:14.658Z,251.90
2022-07-29T10:34:04.701Z,244.82
2022-07-29T10:37:08.518Z,244.52
2022-07-29T10:40:29.398Z,233.27
2022-07-29T10:43:20.773Z,228.98
2022-07-29T10:46:08.850Z,216.07
2022-07-29T10:49:17.535Z,202.35
2022-07-29T10:52:06.869Z,191.57
2022-07-29T10:54:54.743Z,192.15
2022-07-29T10:58:27.932Z,189.65
2022-07-29T11:01:37.344Z,197.57
2022-07-29T11:04:44.641Z,200.85
2022-07-29T11:07:45.763Z,205.52
2022-07-29T11:10:33.509Z,228.52
2022-07-29T11:13:49.229Z,219.43
2022-07-29T11:17:01.777Z,210.52
2022-07-29T11:19:52.305Z,199.43
2022-07-29T11:22:43.132Z,200.30
2022-07-29T11:25:42.522Z,203.23
2022-07-29T11:28:55.666Z,202.73
2022-07-29T11:31:46.318Z,197.73
2022-07-29T11:34:34.809Z,193.85
2022-07-29T11:37:27.793Z,192.30
2022-07-29T11:40:16.943Z,193.68
2022-07-29T11:43:07.383Z,193.55
2022-07-29T11:45:54.614Z,191.15
2022-07-29T11:48:44.755Z,191.38
2022-07-29T11:51:33.335Z,192.57
2022-07-29T11:54:57.841Z,191.80
2022-07-29T12:00:58.565Z,190.43
2022-07-29T12:04:03.801Z,191.98
2022-07-29T12:06:55.670Z,193.23
2022-07-29T12:09:53.479Z,191.45
2022-07-29T12:12:51.845Z,180.93
2022-07-29T12:15:46.785Z,180.52
2022-07-29T12:18:34.506Z,187.20
2022-07-29T12:21:21.578Z,183.25
2022-07-29T12:24:12.782Z,181.23
2022-07-29T12:27:00.943Z,179.75
2022-07-29T12:30:01.674Z,180.85
2022-07-29T12:32:49.710Z,180.45
2022-07-29T12:35:36.884Z,182.38
2022-07-29T12:38:24.198Z,174.52
2022-07-29T12:41:11.686Z,174.10
2022-07-29T12:43:59.209Z,175.43
2022-07-29T12:46:49.436Z,176.52
2022-07-29T12:49:38.024Z,176.50
2022-07-29T12:52:25.249Z,168.48
2022-07-29T12:55:12.899Z,172.90
2022-07-29T12:58:00.048Z,169.93
2022-07-29T13:00:47.184Z,172.65
2022-07-29T13:03:57.370Z,174.48
2022-07-29T13:06:51.037Z,169.98
2022-07-29T13:09:43.675Z,177.43
2022-07-29T13:12:30.669Z,179.02
2022-07-29T13:15:17.807Z,175.60
2022-07-29T13:18:05.660Z,181.52
2022-07-29T13:20:52.592Z,176.35
2022-07-29T13:23:39.784Z,178.70
2022-07-29T13:26:26.780Z,186.30
2022-07-29T13:29:14.108Z,206.40
2022-07-29T13:32:01.404Z,218.50
2022-07-29T13:34:48.716Z,227.82
2022-07-29T13:37:39.395Z,225.93
2022-07-29T13:40:27.042Z,229.18
2022-07-29T13:43:14.101Z,234.93
2022-07-29T13:46:01.164Z,231.93
2022-07-29T13:48:48.373Z,229.20
2022-07-29T13:51:35.485Z,238.50
2022-07-29T13:54:22.592Z,234.63
2022-07-29T13:57:11.984Z,236.82
2022-07-29T13:59:59.241Z,249.55
2022-07-29T14:02:46.194Z,243.43
2022-07-29T14:05:33.305Z,245.40
2022-07-29T14:08:20.445Z,246.57
2022-07-29T14:11:07.489Z,252.40
2022-07-29T14:13:54.433Z,243.60
2022-07-29T14:16:49.016Z,238.82
2022-07-29T14:19:39.866Z,236.40
2022-07-29T14:22:26.918Z,236.50
2022-07-29T14:25:14.915Z,227.07
2022-07-29T14:28:02.842Z,211.02
2022-07-29T14:30:49.858Z,207.77
2022-07-29T14:33:36.838Z,205.90
2022-07-29T14:36:23.852Z,207.43
2022-07-29T14:39:10.929Z,193.15
2022-07-29T14:41:58.116Z,185.38
2022-07-29T14:44:45.303Z,176.55
2022-07-29T14:47:34.019Z,170.13
2022-07-29T14:50:27.576Z,178.88
2022-07-29T14:53:18.701Z,176.63
2022-07-29T14:56:33.897Z,179.45
2022-07-29T14:59:12.725Z,172.70
2022-07-29T15:02:00.077Z,175.00
2022-07-29T15:04:48.868Z,171.55
2022-07-29T15:07:36.025Z,173.82
2022-07-29T15:10:24.754Z,167.90
2022-07-29T15:13:11.876Z,166.18
2022-07-29T15:16:00.284Z,165.18
2022-07-29T15:18:47.663Z,164.30
2022-07-29T15:21:34.938Z,164.80
2022-07-29T15:24:28.728Z,167.27
2022-07-29T15:27:15.765Z,171.70
2022-07-29T15:30:02.924Z,163.77
2022-07-29T15:32:50.102Z,161.63
2022-07-29T15:35:43.174Z,161.13
2022-07-29T15:38:30.265Z,159.02
2022-07-29T15:41:17.342Z,153.40
2022-07-29T15:44:04.673Z,159.90
2022-07-29T15:47:03.863Z,153.10
2022-07-29T15:49:50.948Z,153.38
2022-07-29T15:52:38.038Z,144.02
2022-07-29T15:55:28.388Z,144.00
2022-07-29T15:58:15.457Z,136.77
2022-07-29T16:01:02.556Z,138.00
2022-07-29T16:03:49.780Z,132.45
2022-07-29T16:06:36.742Z,128.35
2022-07-29T16:09:24.216Z,128.82
2022-07-29T16:12:15.192Z,121.85
2022-07-29T16:15:07.592Z,119.15
2022-07-29T16:17:56.748Z,120.20
2022-07-29T16:20:43.889Z,116.40
2022-07-29T16:23:30.869Z,115.53
2022-07-29T16:26:18.045Z,115.90
2022-07-29T16:29:07.033Z,118.65
2022-07-29T16:31:54.139Z,118.35
2022-07-29T16:34:41.693Z,114.88
2022-07-29T16:37:33.606Z,117.25
2022-07-29T16:40:21.037Z,114.53
2022-07-29T16:43:08.960Z,114.95
2022-07-29T16:45:56.209Z,116.70
2022-07-29T16:48:43.275Z,112.75
2022-07-29T16:51:32.309Z,112.03
2022-07-29T16:54:20.202Z,111.47
2022-07-29T16:57:07.429Z,114.05
2022-07-29T16:59:54.419Z,111.72
2022-07-29T17:02:41.659Z,113.22
2022-07-29T17:05:29.166Z,111.95
2022-07-29T17:08:16.490Z,112.72
2022-07-29T17:11:03.602Z,112.63
2022-07-29T17:13:50.554Z,111.43
2022-07-29T17:16:37.735Z,109.68
2022-07-29T17:19:25.041Z,113.30
2022-07-29T17:22:18.665Z,113.68
2022-07-29T17:25:08.404Z,111.65
2022-07-29T17:28:00.475Z,109.43
2022-07-29T17:30:48.273Z,108.63
2022-07-29T17:33:36.555Z,109.40
2022-07-29T17:36:23.892Z,108.82
2022-07-29T17:39:14.060Z,109.55
2022-07-29T17:42:02.608Z,111.13
2022-07-29T17:44:49.678Z,110.90
2022-07-29T17:47:38.424Z,111.78
2022-07-29T17:50:25.790Z,109.40
2022-07-29T17:53:16.068Z,110.03
2022-07-29T17:56:05.222Z,111.53
2022-07-29T17:58:52.883Z,108.82
2022-07-29T18:01:41.554Z,108.75
2022-07-29T18:04:29.214Z,108.03
2022-07-29T18:07:16.993Z,110.07
2022-07-29T18:10:04.549Z,109.70
2022-07-29T18:12:51.576Z,110.78
2022-07-29T18:15:41.396Z,108.78
2022-07-29T18:18:28.468Z,110.35
2022-07-29T18:21:15.431Z,108.20
2022-07-29T18:24:02.489Z,108.93
2022-07-29T18:26:49.481Z,110.05
2022-07-29T18:29:36.921Z,106.82
2022-07-29T18:32:29.441Z,111.30
2022-07-29T18:35:17.336Z,111.30
2022-07-29T18:38:06.387Z,109.93
2022-07-29T18:40:53.378Z,111.55
2022-07-29T18:43:40.385Z,111.47
2022-07-29T18:46:27.489Z,113.63
2022-07-29T18:49:14.700Z,112.13
2022-07-29T18:52:01.823Z,114.82
2022-07-29T18:54:48.838Z,111.90
2022-07-29T18:57:54.834Z,114.07
2022-07-29T19:00:43.607Z,115.10
2022-07-29T19:03:30.637Z,112.95
2022-07-29T19:06:19.022Z,114.40
2022-07-29T19:09:11.203Z,117.50
2022-07-29T19:12:03.170Z,111.03
2022-07-29T19:14:50.538Z,112.38
2022-07-29T19:17:38.716Z,111.75
2022-07-29T19:20:25.676Z,111.63
2022-07-29T19:23:12.684Z,113.80
2022-07-29T19:25:59.702Z,110.20
2022-07-29T19:28:49.053Z,112.72
2022-07-29T19:31:36.221Z,113.07
2022-07-29T19:34:23.306Z,111.53
2022-07-29T19:37:10.572Z,113.55
2022-07-29T19:39:57.673Z,114.95
2022-07-29T19:42:44.638Z,113.35
2022-07-29T19:45:32.263Z,112.00
2022-07-29T19:48:19.211Z,113.32
2022-07-29T19:51:06.158Z,109.97
2022-07-29T19:53:53.150Z,112.97
2022-07-29T19:56:42.068Z,111.60
2022-07-29T19:59:29.611Z,113.78
2022-07-29T20:02:16.732Z,114.43
2022-07-29T20:05:04.715Z,110.75
2022-07-29T20:07:51.940Z,108.53
2022-07-29T20:10:38.949Z,111.25
2022-07-29T20:13:26.062Z,112.82
2022-07-29T20:16:13.171Z,112.70
2022-07-29T20:19:00.281Z,111.22
2022-07-29T20:21:47.233Z,113.07
2022-07-29T20:24:34.358Z,113.85
2022-07-29T20:27:21.761Z,115.32
2022-07-29T20:30:09.532Z,113.03
2022-07-29T20:32:58.151Z,115.32
2022-07-29T20:35:45.126Z,111.82
2022-07-29T20:38:32.073Z,112.60
2022-07-29T20:41:18.989Z,110.95
2022-07-29T20:44:06.791Z,111.53
2022-07-29T20:46:53.812Z,113.15
2022-07-29T20:49:40.785Z,111.05
2022-07-29T20:52:30.158Z,112.45
2022-07-29T20:55:17.283Z,109.47
2022-07-29T20:58:04.655Z,108.18
2022-07-29T21:00:51.787Z,113.30
2022-07-29T21:03:38.964Z,111.45
2022-07-29T21:06:25.902Z,112.97
2022-07-29T21:09:12.953Z,115.45
2022-07-29T21:12:00.712Z,115.15
2022-07-29T21:14:51.835Z,116.13
2022-07-29T21:17:46.233Z,116.13
2022-07-29T21:20:33.162Z,119.57
2022-07-29T21:23:20.326Z,117.90
2022-07-29T21:26:11.137Z,119.88
2022-07-29T21:28:59.904Z,124.28
2022-07-29T21:31:46.819Z,120.10
2022-07-29T21:34:33.999Z,118.95
2022-07-29T21:37:21.023Z,117.15
2022-07-29T21:40:08.753Z,119.60
2022-07-29T21:42:55.877Z,120.32
2022-07-29T21:45:44.166Z,116.88
2022-07-29T21:48:31.288Z,121.30
2022-07-29T21:51:18.227Z,120.97
2022-07-29T21:54:05.294Z,118.65
2022-07-29T21:56:53.473Z,120.40
2022-07-29T21:59:40.554Z,120.25
2022-07-29T22:02:27.620Z,117.93
2022-07-29T22:05:15.008Z,118.22
2022-07-29T22:08:02.594Z,116.50
2022-07-29T22:10:49.537Z,118.45
2022-07-29T22:13:37.065Z,116.32
2022-07-29T22:16:24.108Z,117.20
2022-07-29T22:19:11.788Z,115.10
2022-07-29T22:21:58.701Z,116.38
2022-07-29T22:24:45.975Z,116.07
2022-07-29T22:27:33.314Z,116.05
2022-07-29T22:30:20.300Z,113.07
2022-07-29T22:33:07.261Z,113.53
2022-07-29T22:35:54.488Z,114.30
2022-07-29T22:38:41.437Z,114.45
2022-07-29T22:41:28.366Z,113.80
2022-07-29T22:44:15.468Z,110.72
2022-07-29T22:47:04.621Z,113.22
2022-07-29T22:49:51.602Z,112.05
2022-07-29T22:52:38.692Z,112.85
2022-07-29T22:55:25.696Z,110.68
2022-07-29T22:58:12.725Z,112.60
2022-07-29T23:00:59.824Z,115.07
2022-07-29T23:03:51.310Z,112.57
2022-07-29T23:06:38.764Z,112.70
2022-07-29T23:09:25.715Z,110.47
2022-07-29T23:12:12.746Z,109.22
2022-07-29T23:14:59.953Z,112.13
2022-07-29T23:17:46.945Z,110.07
2022-07-29T23:20:33.945Z,109.47
2022-07-29T23:23:20.919Z,108.65
2022-07-29T23:26:07.916Z,107.82
2022-07-29T23:28:55.021Z,112.53
2022-07-29T23:31:42.679Z,107.30
2022-07-29T23:34:35.395Z,108.43
2022-07-29T23:37:22.514Z,103.50
2022-07-29T23:40:14.261Z,109.53
2022-07-29T23:43:01.787Z,106.10
2022-07-29T23:45:53.648Z,108.60
2022-07-29T23:48:40.849Z,104.38
2022-07-29T23:51:29.260Z,105.13
2022-07-29T23:54:16.380Z,105.82
2022-07-29T23:57:03.649Z,103.32
2022-07-29T23:59:51.388Z,107.95
